createdAt,value
2018-11-02T00:00:01.801Z,1008.82
2018-11-02T00:01:01.848Z,1008.83
2018-11-02T00:02:01.872Z,1008.89
2018-11-02T00:03:01.891Z,1008.89
2018-11-02T00:05:01.970Z,1008.97
2018-11-02T00:07:02.338Z,1008.95
2018-11-02T00:08:02.455Z,1008.96
2018-11-02T00:10:02.119Z,1008.95
2018-11-02T00:11:02.096Z,1008.96
2018-11-02T00:12:02.268Z,1008.99
2018-11-02T00:13:02.212Z,1008.98
2018-11-02T00:14:02.508Z,1008.97
2018-11-02T00:15:02.239Z,1008.97
2018-11-02T00:16:02.312Z,1008.94
2018-11-02T00:20:02.435Z,1008.76
2018-11-02T00:21:02.767Z,1008.69
2018-11-02T00:22:02.495Z,1008.64
2018-11-02T00:23:02.532Z,1008.62
2018-11-02T00:24:02.557Z,1008.55
2018-11-02T00:26:02.628Z,1008.52
2018-11-02T00:27:02.657Z,1008.54
2018-11-02T00:28:02.641Z,1008.56
2018-11-02T00:29:02.673Z,1008.59
2018-11-02T00:30:02.755Z,1008.60
2018-11-02T00:31:02.738Z,1008.66
2018-11-02T00:32:02.972Z,1008.74
2018-11-02T00:33:02.853Z,1008.82
2018-11-02T00:34:03.262Z,1008.84
2018-11-02T00:35:02.863Z,1008.86
2018-11-02T00:37:02.978Z,1008.94
2018-11-02T00:38:02.961Z,1008.97
2018-11-02T00:39:03.053Z,1008.99
2018-11-02T00:40:03.041Z,1008.97
2018-11-02T00:41:03.368Z,1008.99
2018-11-02T00:43:03.187Z,1009.03
2018-11-02T00:44:03.236Z,1009.04
2018-11-02T00:45:03.237Z,1009.06
2018-11-02T00:47:03.252Z,1009.02
2018-11-02T00:48:03.581Z,1009.04
2018-11-02T00:49:03.363Z,1009.06
2018-11-02T00:50:03.355Z,1009.06
2018-11-02T00:51:03.379Z,1009.13
2018-11-02T00:52:03.457Z,1009.14
2018-11-02T00:54:03.526Z,1009.19
2018-11-02T00:55:03.817Z,1009.20
2018-11-02T00:56:03.590Z,1009.19
2018-11-02T00:57:03.571Z,1009.20
2018-11-02T00:58:03.601Z,1009.18
2018-11-02T00:59:03.685Z,1009.28
2018-11-02T01:00:03.664Z,1009.31
2018-11-02T01:04:03.841Z,1009.42
2018-11-02T01:06:04.208Z,1009.43
2018-11-02T01:07:03.942Z,1009.47
2018-11-02T01:08:03.946Z,1009.49
2018-11-02T01:09:03.985Z,1009.48
2018-11-02T01:10:04.001Z,1009.53
2018-11-02T01:11:04.079Z,1009.48
2018-11-02T01:12:04.354Z,1009.50
2018-11-02T01:13:04.143Z,1009.51
2018-11-02T01:14:04.115Z,1009.53
2018-11-02T01:15:04.146Z,1009.55
2018-11-02T01:17:04.264Z,1009.57
2018-11-02T01:18:04.241Z,1009.56
2018-11-02T01:19:04.579Z,1009.56
2018-11-02T01:20:04.327Z,1009.64
2018-11-02T01:21:04.394Z,1009.59
2018-11-02T01:22:04.441Z,1009.61
2018-11-02T01:23:04.475Z,1009.67
2018-11-02T01:24:04.482Z,1009.71
2018-11-02T01:25:04.466Z,1009.72
2018-11-02T01:26:04.806Z,1009.77
2018-11-02T01:27:04.629Z,1009.76
2018-11-02T01:28:04.560Z,1009.76
2018-11-02T01:29:04.654Z,1009.81
2018-11-02T01:30:04.630Z,1009.80
2018-11-02T01:31:04.709Z,1009.81
2018-11-02T01:32:04.737Z,1009.81
2018-11-02T01:33:05.037Z,1009.81
2018-11-02T01:34:04.759Z,1009.87
2018-11-02T01:36:04.816Z,1009.85
2018-11-02T01:37:04.852Z,1009.85
2018-11-02T01:38:04.929Z,1009.90
2018-11-02T01:39:04.963Z,1009.85
2018-11-02T01:40:05.276Z,1009.89
2018-11-02T01:41:05.028Z,1009.90
2018-11-02T01:42:05.010Z,1009.91
2018-11-02T01:43:05.160Z,1009.99
2018-11-02T01:44:05.126Z,1010.01
2018-11-02T01:45:05.156Z,1010.01
2018-11-02T01:46:05.135Z,1010.03
2018-11-02T01:47:05.466Z,1010.01
2018-11-02T01:48:05.201Z,1010.05
2018-11-02T01:49:05.288Z,1010.04
2018-11-02T01:50:05.277Z,1010.05
2018-11-02T01:51:05.347Z,1010.05
2018-11-02T01:52:05.330Z,1010.07
2018-11-02T01:53:05.795Z,1010.12
2018-11-02T01:54:05.742Z,1010.11
2018-11-02T01:55:05.481Z,1010.12
2018-11-02T01:56:05.456Z,1010.19
2018-11-02T01:57:05.541Z,1010.22
2018-11-02T01:58:05.521Z,1010.24
2018-11-02T01:59:05.603Z,1010.18
2018-11-02T02:00:05.639Z,1010.20
2018-11-02T02:01:05.916Z,1010.27
2018-11-02T02:02:05.709Z,1010.33
2018-11-02T02:03:05.730Z,1010.35
2018-11-02T02:04:05.763Z,1010.34
2018-11-02T02:05:05.795Z,1010.39
2018-11-02T02:06:05.777Z,1010.42
2018-11-02T02:07:05.857Z,1010.40
2018-11-02T02:08:06.140Z,1010.40
2018-11-02T02:09:05.872Z,1010.41
2018-11-02T02:10:05.954Z,1010.43
2018-11-02T02:11:05.989Z,1010.44
2018-11-02T02:12:06.068Z,1010.40
2018-11-02T02:13:06.053Z,1010.39
2018-11-02T02:14:06.081Z,1010.42
2018-11-02T02:15:06.366Z,1010.38
2018-11-02T02:16:06.098Z,1010.36
2018-11-02T02:17:06.177Z,1010.33
2018-11-02T02:18:06.159Z,1010.37
2018-11-02T02:19:06.245Z,1010.35
2018-11-02T02:20:06.225Z,1010.42
2018-11-02T02:21:06.307Z,1010.40
2018-11-02T02:22:06.588Z,1010.43
2018-11-02T02:23:06.378Z,1010.44
2018-11-02T02:24:06.405Z,1010.44
2018-11-02T02:25:06.436Z,1010.47
2018-11-02T02:26:06.471Z,1010.47
2018-11-02T02:27:06.498Z,1010.52
2018-11-02T02:28:06.580Z,1010.57
2018-11-02T02:29:06.863Z,1010.63
2018-11-02T02:30:06.565Z,1010.62
2018-11-02T02:31:06.578Z,1010.64
2018-11-02T02:32:06.658Z,1010.69
2018-11-02T02:34:06.727Z,1010.76
2018-11-02T02:35:06.760Z,1010.74
2018-11-02T02:36:07.040Z,1010.70
2018-11-02T02:37:06.781Z,1010.74
2018-11-02T02:38:06.808Z,1010.73
2018-11-02T02:39:06.832Z,1010.78
2018-11-02T02:40:06.872Z,1010.73
2018-11-02T02:41:06.945Z,1010.76
2018-11-02T02:42:07.237Z,1010.79
2018-11-02T02:43:07.007Z,1010.77
2018-11-02T02:44:07.149Z,1010.84
2018-11-02T02:45:07.072Z,1010.82
2018-11-02T02:46:07.054Z,1010.86
2018-11-02T02:47:07.139Z,1010.90
2018-11-02T02:48:07.474Z,1010.96
2018-11-02T02:49:07.205Z,1010.95
2018-11-02T02:50:07.184Z,1010.97
2018-11-02T02:51:07.272Z,1010.97
2018-11-02T02:52:07.317Z,1010.97
2018-11-02T02:53:07.282Z,1011.00
2018-11-02T02:54:07.814Z,1011.02
2018-11-02T02:55:07.392Z,1011.06
2018-11-02T02:56:07.425Z,1011.10
2018-11-02T02:57:07.407Z,1011.12
2018-11-02T02:58:07.473Z,1011.17
2018-11-02T02:59:07.468Z,1011.17
2018-11-02T03:00:07.555Z,1011.21
2018-11-02T03:01:07.837Z,1011.20
2018-11-02T03:02:07.565Z,1011.26
2018-11-02T03:03:07.600Z,1011.29
2018-11-02T03:04:07.630Z,1011.27
2018-11-02T03:05:07.712Z,1011.28
2018-11-02T03:06:07.747Z,1011.26
2018-11-02T03:07:07.775Z,1011.30
2018-11-02T03:08:08.095Z,1011.30
2018-11-02T03:09:07.846Z,1011.32
2018-11-02T03:10:07.830Z,1011.34
2018-11-02T03:11:08.052Z,1011.30
2018-11-02T03:12:07.934Z,1011.30
2018-11-02T03:13:08.018Z,1011.35
2018-11-02T03:14:08.001Z,1011.38
2018-11-02T03:15:08.280Z,1011.39
2018-11-02T03:16:08.119Z,1011.45
2018-11-02T03:17:08.096Z,1011.45
2018-11-02T03:18:08.167Z,1011.43
2018-11-02T03:19:08.115Z,1011.52
2018-11-02T03:20:08.238Z,1011.51
2018-11-02T03:21:08.224Z,1011.51
2018-11-02T03:22:08.506Z,1011.49
2018-11-02T03:23:08.234Z,1011.58
2018-11-02T03:24:08.270Z,1011.57
2018-11-02T03:25:08.354Z,1011.54
2018-11-02T03:26:08.450Z,1011.54
2018-11-02T03:27:08.424Z,1011.53
2018-11-02T03:28:08.396Z,1011.61
2018-11-02T03:29:08.731Z,1011.58
2018-11-02T03:30:08.510Z,1011.61
2018-11-02T03:31:08.563Z,1011.66
2018-11-02T03:32:08.522Z,1011.68
2018-11-02T03:33:08.556Z,1011.68
2018-11-02T03:34:08.636Z,1011.72
2018-11-02T03:35:08.620Z,1011.74
2018-11-02T03:36:08.960Z,1011.79
2018-11-02T03:37:08.736Z,1011.79
2018-11-02T03:38:08.713Z,1011.84
2018-11-02T03:39:08.799Z,1011.86
2018-11-02T03:40:08.827Z,1011.88
2018-11-02T03:41:08.860Z,1011.93
2018-11-02T03:42:08.841Z,1011.95
2018-11-02T03:43:09.175Z,1011.97
2018-11-02T03:44:08.905Z,1011.96
2018-11-02T03:45:08.940Z,1011.93
2018-11-02T03:46:09.022Z,1011.98
2018-11-02T03:47:09.076Z,1011.92
2018-11-02T03:48:09.084Z,1011.95
2018-11-02T03:51:09.478Z,1011.94
2018-11-02T03:52:09.582Z,1011.97
2018-11-02T03:53:09.240Z,1012.00
2018-11-02T03:54:09.222Z,1011.98
2018-11-02T03:55:09.256Z,1012.02
2018-11-02T03:56:09.339Z,1011.97
2018-11-02T03:57:09.371Z,1012.02
2018-11-02T03:58:09.654Z,1012.05
2018-11-02T03:59:09.430Z,1012.07
2018-11-02T04:00:09.584Z,1012.07
2018-11-02T04:03:36.231Z,1012.20
2018-11-02T04:04:36.250Z,1012.24
2018-11-02T04:05:36.280Z,1012.26
2018-11-02T04:06:36.318Z,1012.29
2018-11-02T04:07:36.290Z,1012.30
2018-11-02T04:08:36.376Z,1012.33
2018-11-02T04:09:36.722Z,1012.31
2018-11-02T04:10:36.390Z,1012.30
2018-11-02T04:11:36.423Z,1012.30
2018-11-02T04:12:36.460Z,1012.29
2018-11-02T04:13:36.488Z,1012.30
2018-11-02T04:14:36.599Z,1012.30
2018-11-02T04:15:36.596Z,1012.30
2018-11-02T04:16:36.890Z,1012.34
2018-11-02T04:17:36.693Z,1012.37
2018-11-02T04:18:36.708Z,1012.35
2018-11-02T04:19:36.688Z,1012.37
2018-11-02T04:20:36.769Z,1012.40
2018-11-02T04:21:36.737Z,1012.37
2018-11-02T04:23:36.853Z,1012.40
2018-11-02T04:24:37.233Z,1012.45
2018-11-02T04:25:36.916Z,1012.43
2018-11-02T04:26:36.896Z,1012.45
2018-11-02T04:29:37.041Z,1012.47
2018-11-02T04:30:37.075Z,1012.53
2018-11-02T04:31:37.356Z,1012.53
2018-11-02T04:32:37.147Z,1012.59
2018-11-02T04:33:37.475Z,1012.57
2018-11-02T04:34:37.216Z,1012.61
2018-11-02T04:35:37.205Z,1012.67
2018-11-02T04:36:37.220Z,1012.69
2018-11-02T04:37:37.299Z,1012.68
2018-11-02T04:38:37.577Z,1012.74
2018-11-02T04:39:37.366Z,1012.78
2018-11-02T04:40:37.344Z,1012.80
2018-11-02T04:41:37.915Z,1012.83
2018-11-02T04:42:37.454Z,1012.84
2018-11-02T04:43:37.436Z,1012.89
2018-11-02T04:44:37.521Z,1012.88
2018-11-02T04:45:37.801Z,1012.89
2018-11-02T04:46:37.580Z,1012.93
2018-11-02T04:47:37.667Z,1012.93
2018-11-02T04:48:37.701Z,1012.94
2018-11-02T04:49:37.727Z,1013.02
2018-11-02T04:50:37.711Z,1012.97
2018-11-02T04:51:37.839Z,1013.03
2018-11-02T04:52:38.103Z,1013.01
2018-11-02T04:53:37.809Z,1013.06
2018-11-02T04:54:37.842Z,1013.12
2018-11-02T04:55:37.825Z,1013.14
2018-11-02T04:56:37.851Z,1013.17
2018-11-02T04:57:37.981Z,1013.20
2018-11-02T04:58:37.912Z,1013.25
2018-11-02T04:59:38.255Z,1013.24
2018-11-02T05:00:38.026Z,1013.28
2018-11-02T05:01:38.016Z,1013.29
2018-11-02T05:02:38.089Z,1013.32
2018-11-02T05:03:38.135Z,1013.33
2018-11-02T05:04:38.156Z,1013.32
2018-11-02T05:05:38.137Z,1013.34
2018-11-02T05:06:38.469Z,1013.39
2018-11-02T05:07:38.247Z,1013.40
2018-11-02T05:08:38.227Z,1013.39
2018-11-02T05:09:38.369Z,1013.40
2018-11-02T05:10:38.293Z,1013.48
2018-11-02T05:11:38.373Z,1013.50
2018-11-02T05:12:38.401Z,1013.53
2018-11-02T05:13:38.792Z,1013.54
2018-11-02T05:14:38.496Z,1013.61
2018-11-02T05:15:38.500Z,1013.59
2018-11-02T05:16:38.484Z,1013.64
2018-11-02T05:17:38.618Z,1013.62
2018-11-02T05:18:38.594Z,1013.65
2018-11-02T05:19:38.876Z,1013.66
2018-11-02T05:20:38.609Z,1013.67
2018-11-02T05:21:38.639Z,1013.68
2018-11-02T05:22:38.728Z,1013.71
2018-11-02T05:23:38.780Z,1013.73
2018-11-02T05:24:38.733Z,1013.74
2018-11-02T05:25:39.147Z,1013.77
2018-11-02T05:26:38.797Z,1013.82
2018-11-02T05:27:38.828Z,1013.83
2018-11-02T05:28:38.863Z,1013.84
2018-11-02T05:29:38.894Z,1013.93
2018-11-02T05:30:38.978Z,1013.94
2018-11-02T05:31:39.255Z,1014.05
2018-11-02T05:32:38.994Z,1014.10
2018-11-02T05:33:39.021Z,1014.09
2018-11-02T05:34:39.152Z,1014.09
2018-11-02T05:35:39.131Z,1014.11
2018-11-02T05:36:39.215Z,1014.08
2018-11-02T05:37:39.197Z,1014.07
2018-11-02T05:38:39.477Z,1014.10
2018-11-02T05:39:39.430Z,1014.06
2018-11-02T05:40:39.293Z,1014.03
2018-11-02T05:41:39.296Z,1014.07
2018-11-02T05:42:39.355Z,1014.02
2018-11-02T05:43:39.335Z,1014.04
2018-11-02T05:44:39.476Z,1014.11
2018-11-02T05:45:39.800Z,1014.08
2018-11-02T05:46:39.483Z,1014.17
2018-11-02T05:47:39.581Z,1014.17
2018-11-02T05:48:39.492Z,1014.21
2018-11-02T05:49:39.531Z,1014.23
2018-11-02T05:50:39.606Z,1014.26
2018-11-02T05:51:39.637Z,1014.32
2018-11-02T05:53:39.951Z,1014.38
2018-11-02T05:54:39.790Z,1014.43
2018-11-02T05:55:39.713Z,1014.45
2018-11-02T05:56:39.795Z,1014.48
2018-11-02T05:57:39.811Z,1014.47
2018-11-02T05:58:39.917Z,1014.54
2018-11-02T05:59:39.841Z,1014.58
2018-11-02T06:00:40.172Z,1014.62
2018-11-02T06:01:40.019Z,1014.65
2018-11-02T06:02:40.239Z,1014.65
2018-11-02T06:03:39.970Z,1014.66
2018-11-02T06:04:40.005Z,1014.66
2018-11-02T06:05:40.034Z,1014.70
2018-11-02T06:06:40.163Z,1014.74
2018-11-02T06:07:40.401Z,1014.73
2018-11-02T06:08:40.129Z,1014.73
2018-11-02T06:09:40.208Z,1014.79
2018-11-02T06:10:40.239Z,1014.75
2018-11-02T06:11:40.224Z,1014.74
2018-11-02T06:12:40.252Z,1014.82
2018-11-02T06:13:40.286Z,1014.78
2018-11-02T06:16:40.737Z,1014.80
2018-11-02T06:17:40.514Z,1014.83
2018-11-02T06:19:40.525Z,1014.83
2018-11-02T06:20:40.589Z,1014.84
2018-11-02T06:21:40.538Z,1014.89
2018-11-02T06:22:41.274Z,1014.89
2018-11-02T06:23:40.655Z,1014.89
2018-11-02T06:24:40.636Z,1014.91
2018-11-02T06:25:40.664Z,1014.90
2018-11-02T06:26:40.755Z,1014.95
2018-11-02T06:27:40.730Z,1014.99
2018-11-02T06:28:40.816Z,1015.01
2018-11-02T06:29:41.091Z,1015.02
2018-11-02T06:31:41.045Z,1015.06
2018-11-02T06:32:40.930Z,1015.11
2018-11-02T06:33:40.998Z,1015.16
2018-11-02T06:34:41.128Z,1015.13
2018-11-02T06:35:40.982Z,1015.20
2018-11-02T06:37:41.410Z,1015.27
2018-11-02T06:39:41.156Z,1015.40
2018-11-02T06:40:41.187Z,1015.40
2018-11-02T06:41:41.169Z,1015.40
2018-11-02T06:42:41.267Z,1015.43
2018-11-02T06:44:41.344Z,1015.50
2018-11-02T06:45:41.297Z,1015.51
2018-11-02T06:46:41.378Z,1015.57
2018-11-02T06:47:41.413Z,1015.58
2018-11-02T06:48:41.409Z,1015.60
2018-11-02T06:49:41.732Z,1015.66
2018-11-02T06:50:41.563Z,1015.69
2018-11-02T06:51:41.594Z,1015.70
2018-11-02T06:52:41.567Z,1015.72
2018-11-02T06:53:41.610Z,1015.76
2018-11-02T06:54:41.580Z,1015.73
2018-11-02T06:55:41.611Z,1015.72
2018-11-02T06:56:42.045Z,1015.76
2018-11-02T06:57:41.678Z,1015.81
2018-11-02T06:58:42.115Z,1015.82
2018-11-02T06:59:41.968Z,1015.86
2018-11-02T07:00:41.773Z,1015.87
2018-11-02T07:01:41.905Z,1015.90
2018-11-02T07:02:41.885Z,1015.90
2018-11-02T07:03:42.269Z,1015.92
2018-11-02T07:04:41.907Z,1015.92
2018-11-02T07:05:41.931Z,1015.93
2018-11-02T07:06:42.013Z,1015.94
2018-11-02T07:07:42.237Z,1015.99
2018-11-02T07:08:42.190Z,1015.96
2018-11-02T07:09:42.063Z,1015.97
2018-11-02T07:11:42.271Z,1016.00
2018-11-02T07:12:42.183Z,1016.00
2018-11-02T07:13:42.232Z,1015.97
2018-11-02T07:14:42.282Z,1015.98
2018-11-02T07:15:42.302Z,1015.97
2018-11-02T07:16:42.586Z,1015.96
2018-11-02T07:17:42.310Z,1016.02
2018-11-02T07:18:42.394Z,1016.01
2018-11-02T07:19:42.529Z,1016.03
2018-11-02T07:20:42.414Z,1016.07
2018-11-02T07:21:42.446Z,1016.09
2018-11-02T07:22:42.873Z,1016.12
2018-11-02T07:23:42.552Z,1016.10
2018-11-02T07:25:42.618Z,1016.18
2018-11-02T07:26:42.647Z,1016.17
2018-11-02T07:27:42.629Z,1016.18
2018-11-02T07:28:42.966Z,1016.21
2018-11-02T07:29:42.694Z,1016.25
2018-11-02T07:30:42.775Z,1016.21
2018-11-02T07:31:42.804Z,1016.26
2018-11-02T07:32:42.791Z,1016.26
2018-11-02T07:33:42.872Z,1016.24
2018-11-02T07:34:43.155Z,1016.25
2018-11-02T07:36:43.614Z,1016.27
2018-11-02T07:37:42.983Z,1016.29
2018-11-02T07:38:43.129Z,1016.31
2018-11-02T07:39:43.058Z,1016.28
2018-11-02T07:40:43.056Z,1016.33
2018-11-02T07:41:43.373Z,1016.37
2018-11-02T07:42:43.188Z,1016.36
2018-11-02T07:43:43.141Z,1016.39
2018-11-02T07:44:43.263Z,1016.42
2018-11-02T07:45:43.271Z,1016.35
2018-11-02T07:46:43.293Z,1016.35
2018-11-02T07:47:43.743Z,1016.38
2018-11-02T07:48:43.755Z,1016.39
2018-11-02T07:49:43.446Z,1016.41
2018-11-02T07:50:43.369Z,1016.40
2018-11-02T07:51:43.466Z,1016.40
2018-11-02T07:52:43.423Z,1016.40
2018-11-02T07:53:43.510Z,1016.40
2018-11-02T07:54:43.637Z,1016.43
2018-11-02T07:55:43.822Z,1016.42
2018-11-02T07:56:43.550Z,1016.40
2018-11-02T07:57:43.682Z,1016.44
2018-11-02T07:58:43.670Z,1016.44
2018-11-02T07:59:43.654Z,1016.45
2018-11-02T08:00:43.734Z,1016.47
2018-11-02T08:01:43.829Z,1016.47
2018-11-02T08:02:44.104Z,1016.49
2018-11-02T08:03:43.784Z,1016.49
2018-11-02T08:04:43.816Z,1016.50
2018-11-02T08:05:43.911Z,1016.50
2018-11-02T08:06:44.047Z,1016.52
2018-11-02T08:07:43.898Z,1016.51
2018-11-02T08:08:43.932Z,1016.49
2018-11-02T08:09:44.265Z,1016.50
2018-11-02T08:10:44.045Z,1016.53
2018-11-02T08:11:44.239Z,1016.54
2018-11-02T08:12:44.064Z,1016.54
2018-11-02T08:13:44.091Z,1016.54
2018-11-02T08:14:44.175Z,1016.50
2018-11-02T08:15:44.157Z,1016.46
2018-11-02T08:16:44.236Z,1016.50
2018-11-02T08:17:44.333Z,1016.50
2018-11-02T08:18:45.200Z,1016.47
2018-11-02T08:19:44.739Z,1016.45
2018-11-02T08:20:44.314Z,1016.48
2018-11-02T08:21:44.426Z,1016.47
2018-11-02T08:22:44.682Z,1016.47
2018-11-02T08:23:44.411Z,1016.52
2018-11-02T08:24:44.441Z,1016.53
2018-11-02T08:25:44.483Z,1016.60
2018-11-02T08:26:44.561Z,1016.62
2018-11-02T08:27:44.586Z,1016.65
2018-11-02T08:28:44.878Z,1016.71
2018-11-02T08:29:44.601Z,1016.71
2018-11-02T08:30:44.684Z,1016.78
2018-11-02T08:31:44.713Z,1016.81
2018-11-02T08:32:44.710Z,1016.85
2018-11-02T08:33:44.833Z,1016.90
2018-11-02T08:34:45.067Z,1016.88
2018-11-02T08:35:44.850Z,1016.88
2018-11-02T08:36:44.829Z,1016.93
2018-11-02T08:37:44.857Z,1016.86
2018-11-02T08:38:44.939Z,1016.92
2018-11-02T08:39:44.989Z,1016.94
2018-11-02T08:40:45.258Z,1016.97
2018-11-02T08:41:44.982Z,1017.02
2018-11-02T08:42:45.075Z,1017.02
2018-11-02T08:43:45.384Z,1017.04
2018-11-02T08:44:45.232Z,1017.07
2018-11-02T08:45:45.111Z,1017.08
2018-11-02T08:46:45.194Z,1017.12
2018-11-02T08:47:45.480Z,1017.13
2018-11-02T08:48:45.205Z,1017.12
2018-11-02T08:49:45.288Z,1017.08
2018-11-02T08:50:45.346Z,1017.13
2018-11-02T08:51:45.316Z,1017.14
2018-11-02T08:52:45.349Z,1017.18
2018-11-02T08:53:45.365Z,1017.17
2018-11-02T08:55:45.485Z,1017.14
2018-11-02T08:56:45.478Z,1017.20
2018-11-02T08:57:45.646Z,1017.16
2018-11-02T08:58:45.862Z,1017.18
2018-11-02T08:59:45.949Z,1017.14
2018-11-02T09:00:45.892Z,1017.20
2018-11-02T09:01:45.679Z,1017.16
2018-11-02T09:02:45.702Z,1017.17
2018-11-02T09:03:45.737Z,1017.21
2018-11-02T09:04:45.727Z,1017.20
2018-11-02T09:05:45.844Z,1017.19
2018-11-02T09:06:45.835Z,1017.19
2018-11-02T09:07:46.166Z,1017.20
2018-11-02T09:08:46.110Z,1017.21
2018-11-02T09:09:45.879Z,1017.19
2018-11-02T09:10:45.955Z,1017.20
2018-11-02T09:11:45.994Z,1017.20
2018-11-02T09:12:45.970Z,1017.25
2018-11-02T09:13:46.006Z,1017.24
2018-11-02T09:14:46.084Z,1017.28
2018-11-02T09:15:46.115Z,1017.32
2018-11-02T09:16:46.163Z,1017.34
2018-11-02T09:17:46.130Z,1017.36
2018-11-02T09:18:46.317Z,1017.34
2018-11-02T09:19:46.244Z,1017.43
2018-11-02T09:20:46.534Z,1017.39
2018-11-02T09:21:46.256Z,1017.40
2018-11-02T09:22:46.354Z,1017.42
2018-11-02T09:23:46.322Z,1017.46
2018-11-02T09:24:46.404Z,1017.48
2018-11-02T09:25:46.733Z,1017.49
2018-11-02T09:26:46.782Z,1017.47
2018-11-02T09:27:46.588Z,1017.47
2018-11-02T09:28:46.533Z,1017.48
2018-11-02T09:29:46.546Z,1017.52
2018-11-02T09:30:46.626Z,1017.52
2018-11-02T09:31:46.633Z,1017.55
2018-11-02T09:32:46.912Z,1017.56
2018-11-02T09:33:46.645Z,1017.59
2018-11-02T09:34:46.724Z,1017.63
2018-11-02T09:35:47.108Z,1017.64
2018-11-02T09:37:46.771Z,1017.66
2018-11-02T09:38:46.897Z,1017.67
2018-11-02T09:39:46.942Z,1017.65
2018-11-02T09:40:46.910Z,1017.67
2018-11-02T09:41:46.945Z,1017.65
2018-11-02T09:42:46.984Z,1017.69
2018-11-02T09:43:46.958Z,1017.72
2018-11-02T09:44:47.291Z,1017.69
2018-11-02T09:45:47.088Z,1017.73
2018-11-02T09:46:47.114Z,1017.73
2018-11-02T09:47:47.138Z,1017.75
2018-11-02T09:48:47.167Z,1017.77
2018-11-02T09:49:47.199Z,1017.81
2018-11-02T09:50:47.181Z,1017.81
2018-11-02T09:51:47.708Z,1017.83
2018-11-02T09:52:47.294Z,1017.85
2018-11-02T09:53:47.278Z,1017.88
2018-11-02T09:54:47.358Z,1017.92
2018-11-02T09:55:47.436Z,1018.02
2018-11-02T09:56:47.622Z,1017.96
2018-11-02T09:57:49.056Z,1018.01
2018-11-02T09:58:47.736Z,1018.03
2018-11-02T09:59:47.541Z,1018.05
2018-11-02T10:00:48.048Z,1018.06
2018-11-02T10:02:47.617Z,1018.06
2018-11-02T10:03:47.598Z,1018.06
2018-11-02T10:05:47.713Z,1018.06
2018-11-02T10:06:47.691Z,1018.06
2018-11-02T10:07:47.732Z,1018.02
2018-11-02T10:08:47.807Z,1018.04
2018-11-02T10:09:47.887Z,1018.01
2018-11-02T10:10:47.973Z,1018.05
2018-11-02T10:11:47.852Z,1018.07
2018-11-02T10:12:48.196Z,1018.08
2018-11-02T10:13:47.917Z,1018.10
2018-11-02T10:14:47.947Z,1018.10
2018-11-02T10:15:48.029Z,1018.10
2018-11-02T10:16:48.062Z,1018.14
2018-11-02T10:17:48.061Z,1018.21
2018-11-02T10:18:48.126Z,1018.22
2018-11-02T10:19:48.409Z,1018.24
2018-11-02T10:20:48.153Z,1018.23
2018-11-02T10:21:48.223Z,1018.28
2018-11-02T10:22:48.210Z,1018.26
2018-11-02T10:23:48.244Z,1018.24
2018-11-02T10:24:48.320Z,1018.26
2018-11-02T10:25:48.300Z,1018.23
2018-11-02T10:26:48.634Z,1018.24
2018-11-02T10:27:48.417Z,1018.23
2018-11-02T10:28:48.419Z,1018.29
2018-11-02T10:29:48.430Z,1018.24
2018-11-02T10:30:48.529Z,1018.29
2018-11-02T10:31:48.620Z,1018.29
2018-11-02T10:32:48.574Z,1018.28
2018-11-02T10:33:48.865Z,1018.32
2018-11-02T10:34:48.664Z,1018.33
2018-11-02T10:35:48.730Z,1018.37
2018-11-02T10:36:48.713Z,1018.35
2018-11-02T10:37:48.738Z,1018.37
2018-11-02T10:38:48.776Z,1018.40
2018-11-02T10:39:48.800Z,1018.41
2018-11-02T10:40:48.833Z,1018.47
2018-11-02T10:41:48.815Z,1018.46
2018-11-02T10:42:48.893Z,1018.49
2018-11-02T10:43:48.906Z,1018.51
2018-11-02T10:44:49.128Z,1018.53
2018-11-02T10:45:48.994Z,1018.55
2018-11-02T10:46:49.029Z,1018.53
2018-11-02T10:47:49.008Z,1018.57
2018-11-02T10:48:49.043Z,1018.57
2018-11-02T10:49:49.123Z,1018.53
2018-11-02T10:50:49.168Z,1018.54
2018-11-02T10:51:49.488Z,1018.51
2018-11-02T10:52:49.178Z,1018.52
2018-11-02T10:53:49.203Z,1018.51
2018-11-02T10:54:49.496Z,1018.49
2018-11-02T10:55:49.391Z,1018.53
2018-11-02T10:56:49.307Z,1018.53
2018-11-02T10:57:49.330Z,1018.56
2018-11-02T10:58:49.712Z,1018.56
2018-11-02T10:59:49.444Z,1018.53
2018-11-02T11:00:49.596Z,1018.54
2018-11-02T11:01:49.526Z,1018.58
2018-11-02T11:02:49.494Z,1018.62
2018-11-02T11:03:49.729Z,1018.61
2018-11-02T11:04:49.609Z,1018.63
2018-11-02T11:05:49.890Z,1018.65
2018-11-02T11:06:49.621Z,1018.68
2018-11-02T11:07:49.711Z,1018.64
2018-11-02T11:08:49.684Z,1018.64
2018-11-02T11:09:49.718Z,1018.63
2018-11-02T11:10:49.851Z,1018.62
2018-11-02T11:11:50.054Z,1018.65
2018-11-02T11:12:50.483Z,1018.65
2018-11-02T11:13:50.130Z,1018.69
2018-11-02T11:14:49.930Z,1018.67
2018-11-02T11:15:49.911Z,1018.62
2018-11-02T11:16:50.014Z,1018.64
2018-11-02T11:17:49.975Z,1018.67
2018-11-02T11:18:50.057Z,1018.69
2018-11-02T11:19:50.343Z,1018.72
2018-11-02T11:20:50.122Z,1018.73
2018-11-02T11:21:50.154Z,1018.75
2018-11-02T11:22:50.193Z,1018.75
2018-11-02T11:23:50.173Z,1018.70
2018-11-02T11:24:50.206Z,1018.75
2018-11-02T11:25:50.340Z,1018.73
2018-11-02T11:27:50.370Z,1018.72
2018-11-02T11:28:50.346Z,1018.73
2018-11-02T11:29:50.366Z,1018.75
2018-11-02T11:30:50.654Z,1018.73
2018-11-02T11:31:50.431Z,1018.75
2018-11-02T11:32:50.768Z,1018.80
2018-11-02T11:33:50.506Z,1018.76
2018-11-02T11:34:50.625Z,1018.82
2018-11-02T11:35:50.613Z,1018.82
2018-11-02T11:36:50.731Z,1018.84
2018-11-02T11:37:50.679Z,1018.85
2018-11-02T11:38:50.747Z,1018.83
2018-11-02T11:39:51.157Z,1018.85
2018-11-02T11:40:50.772Z,1018.81
2018-11-02T11:41:50.756Z,1018.82
2018-11-02T11:42:50.838Z,1018.82
2018-11-02T11:43:51.224Z,1018.87
2018-11-02T11:44:50.940Z,1018.85
2018-11-02T11:45:51.033Z,1018.85
2018-11-02T11:46:51.219Z,1018.85
2018-11-02T11:47:51.050Z,1018.86
2018-11-02T11:48:51.216Z,1018.83
2018-11-02T11:49:51.061Z,1018.85
2018-11-02T11:50:51.054Z,1018.84
2018-11-02T11:51:51.190Z,1018.88
2018-11-02T11:52:51.254Z,1018.87
2018-11-02T11:53:51.195Z,1018.87
2018-11-02T11:54:51.201Z,1018.87
2018-11-02T11:55:51.213Z,1018.85
2018-11-02T11:56:51.255Z,1018.86
2018-11-02T11:58:51.364Z,1018.83
2018-11-02T11:59:52.252Z,1018.79
2018-11-02T12:00:51.428Z,1018.83
2018-11-02T12:01:51.820Z,1018.85
2018-11-02T12:02:51.502Z,1018.89
2018-11-02T12:03:51.474Z,1018.87
2018-11-02T12:04:51.594Z,1018.91
2018-11-02T12:05:51.848Z,1018.94
2018-11-02T12:06:51.587Z,1018.93
2018-11-02T12:07:51.714Z,1018.97
2018-11-02T12:08:51.686Z,1019.00
2018-11-02T12:09:51.674Z,1019.05
2018-11-02T12:10:52.131Z,1019.07
2018-11-02T12:11:51.913Z,1019.06
2018-11-02T12:12:51.830Z,1019.08
2018-11-02T12:13:51.855Z,1019.08
2018-11-02T12:14:51.888Z,1019.09
2018-11-02T12:15:51.971Z,1019.09
2018-11-02T12:16:51.901Z,1019.14
2018-11-02T12:17:52.231Z,1019.12
2018-11-02T12:18:52.081Z,1019.18
2018-11-02T12:19:52.101Z,1019.18
2018-11-02T12:20:52.031Z,1019.17
2018-11-02T12:21:52.225Z,1019.17
2018-11-02T12:22:52.094Z,1019.13
2018-11-02T12:23:52.147Z,1019.16
2018-11-02T12:24:52.208Z,1019.19
2018-11-02T12:25:52.892Z,1019.18
2018-11-02T12:26:52.275Z,1019.20
2018-11-02T12:27:52.324Z,1019.19
2018-11-02T12:28:52.391Z,1019.19
2018-11-02T12:29:52.372Z,1019.23
2018-11-02T12:30:52.810Z,1019.23
2018-11-02T12:31:52.457Z,1019.21
2018-11-02T12:32:52.945Z,1019.24
2018-11-02T12:33:53.138Z,1019.23
2018-11-02T12:34:53.375Z,1019.21
2018-11-02T12:35:52.731Z,1019.17
2018-11-02T12:36:52.881Z,1019.19
2018-11-02T12:37:52.887Z,1019.16
2018-11-02T12:38:52.668Z,1019.18
2018-11-02T12:39:52.717Z,1019.20
2018-11-02T12:40:52.742Z,1019.14
2018-11-02T12:41:52.769Z,1019.20
2018-11-02T12:42:52.866Z,1019.22
2018-11-02T12:43:52.871Z,1019.25
2018-11-02T12:44:53.320Z,1019.22
2018-11-02T12:45:53.030Z,1019.25
2018-11-02T12:46:52.941Z,1019.24
2018-11-02T12:47:53.078Z,1019.20